Time;durP1;ratioP1;P1;durP2;ratioP2;P2;SDS_P1;SDS_P2;PMS_P1;PMS_P2;Temp;Humidity;BMP_temperature;BMP_pressure;BME280_temperature;BME280_humidity;BME280_pressure;Samples;Min_cycle;Max_cycle;Signal;HPM_P1;HPM_P2
2022/08/29 00:07:43;;;;;;;7.23;5.27;;;;;;;24.03;58.06;100154.53;20609980;28;20540;-74
2022/08/29 00:17:44;;;;;;;8.98;4.78;;;;;;;23.97;58.17;100162.09;20662926;28;20049;-73
2022/08/29 00:27:45;;;;;;;5.73;4.97;;;;;;;23.80;59.09;100173.34;20678711;28;20042;-73
2022/08/29 00:37:45;;;;;;;5.60;4.47;;;;;;;23.81;59.31;100177.66;20641390;28;20053;-74
2022/08/29 00:47:56;;;;;;;6.13;4.60;;;;;;;23.55;59.96;100178.22;20665162;28;20041;-71
2022/08/29 00:58:02;;;;;;;10.13;5.40;;;;;;;23.45;60.04;100180.06;20671113;28;20108;-74
2022/08/29 01:08:04;;;;;;;6.00;4.70;;;;;;;23.46;59.85;100187.84;20667047;28;20112;-75
2022/08/29 01:18:08;;;;;;;6.15;4.50;;;;;;;23.41;59.58;100190.06;20670393;28;21724;-74
2022/08/29 01:28:21;;;;;;;4.70;4.20;;;;;;;23.33;59.95;100195.19;20671496;28;20069;-72
2022/08/29 01:38:27;;;;;;;4.85;4.30;;;;;;;23.21;60.02;100206.88;20664091;28;20042;-74
2022/08/29 01:48:28;;;;;;;5.47;4.25;;;;;;;23.21;59.79;100191.84;20661000;28;20461;-74
2022/08/29 01:58:29;;;;;;;5.43;3.78;;;;;;;23.10;59.96;100194.59;20645225;28;20037;-74
2022/08/29 02:08:29;;;;;;;4.45;4.05;;;;;;;23.04;60.04;100195.94;20674004;28;20081;-73
2022/08/29 02:18:32;;;;;;;5.10;4.45;;;;;;;22.97;60.24;100193.03;20683306;28;20122;-74
2022/08/29 02:28:36;;;;;;;15.57;4.35;;;;;;;22.69;60.88;100184.88;20667274;28;20041;-74
2022/08/29 02:38:38;;;;;;;4.35;3.95;;;;;;;22.69;60.57;100166.41;20617303;28;20493;-74
2022/08/29 02:48:38;;;;;;;6.00;4.60;;;;;;;22.68;60.68;100159.47;20661877;28;20042;-74
2022/08/29 02:58:39;;;;;;;6.18;5.00;;;;;;;22.60;60.69;100180.41;20655420;28;20041;-73
2022/08/29 03:08:40;;;;;;;5.65;5.05;;;;;;;22.38;61.37;100173.50;20663116;28;20057;-73
2022/08/29 03:18:40;;;;;;;6.03;5.07;;;;;;;22.20;62.06;100195.19;20657360;28;20038;-73
2022/08/29 03:28:41;;;;;;;9.65;5.43;;;;;;;22.38;61.36;100194.59;20651670;28;20046;-73
2022/08/29 03:38:42;;;;;;;7.70;5.75;;;;;;;22.21;61.68;100214.47;20655742;28;20272;-74
2022/08/29 03:48:43;;;;;;;7.87;6.40;;;;;;;22.16;61.87;100221.94;20640518;28;20046;-73
2022/08/29 03:58:43;;;;;;;9.60;5.85;;;;;;;22.03;62.36;100241.44;20658581;28;20085;-74
2022/08/29 04:08:46;;;;;;;7.05;6.32;;;;;;;22.13;61.78;100243.28;20668905;28;20046;-74
2022/08/29 04:18:46;;;;;;;;;;;;;;;22.11;61.61;100243.44;20674808;28;20063;-74
2022/08/29 04:28:46;;;;;;;7.82;6.45;;;;;;;22.04;62.07;100258.91;20675218;28;19928;-74
2022/08/29 04:38:47;;;;;;;7.75;5.82;;;;;;;22.06;61.72;100261.44;20678072;28;20038;-74
2022/08/29 04:48:47;;;;;;;8.25;5.95;;;;;;;22.01;61.61;100264.44;20682269;28;20176;-73
2022/08/29 04:58:49;;;;;;;9.70;6.22;;;;;;;21.93;62.06;100272.16;20681235;28;20034;-72
2022/08/29 05:08:51;;;;;;;9.20;6.63;;;;;;;22.00;61.50;100268.03;20662923;28;20041;-74
2022/08/29 05:18:52;;;;;;;8.60;6.40;;;;;;;21.97;61.66;100270.97;20655091;28;20062;-73
2022/08/29 05:28:53;;;;;;;7.30;6.10;;;;;;;22.07;61.65;100284.22;20674580;28;20053;-73
2022/08/29 05:38:54;;;;;;;10.20;5.63;;;;;;;22.16;61.57;100286.06;20653605;28;20057;-72
2022/08/29 05:48:55;;;;;;;9.02;5.13;;;;;;;22.37;61.03;100283.44;20674320;28;20350;-72
2022/08/29 05:58:55;;;;;;;6.57;5.32;;;;;;;22.38;60.91;100285.13;20610530;28;20602;-73
2022/08/29 06:08:57;;;;;;;9.53;5.37;;;;;;;22.51;60.30;100286.75;20674542;28;20073;-73
2022/08/29 06:18:59;;;;;;;8.70;5.95;;;;;;;22.49;60.88;100292.13;20663990;28;20291;-77
2022/08/29 06:28:59;;;;;;;6.93;5.78;;;;;;;22.62;59.98;100320.97;20700363;28;20042;-74
2022/08/29 06:39:02;;;;;;;8.52;5.40;;;;;;;22.81;59.75;100322.03;20688637;28;20049;-74
2022/08/29 06:49:06;;;;;;;7.10;5.00;;;;;;;22.93;59.91;100333.38;20676221;28;20049;-73
2022/08/29 06:59:07;;;;;;;6.25;5.03;;;;;;;23.11;58.69;100330.94;20650102;28;20069;-75
2022/08/29 07:09:07;;;;;;;6.85;4.65;;;;;;;23.18;58.44;100335.59;20642888;28;20994;-79
2022/08/29 07:19:09;;;;;;;6.80;4.53;;;;;;;23.36;58.08;100342.88;20621970;28;20520;-78
2022/08/29 07:29:17;;;;;;;7.20;4.77;;;;;;;23.55;57.66;100339.47;20654443;28;20034;-75
2022/08/29 07:39:18;;;;;;;6.18;4.10;;;;;;;23.65;57.47;100348.22;20668771;28;20041;-77
2022/08/29 07:49:19;;;;;;;11.15;5.30;;;;;;;23.82;57.93;100351.19;20660266;28;20084;-75
2022/08/29 07:59:20;;;;;;;6.40;4.85;;;;;;;24.01;57.39;100349.56;20631465;28;20052;-78
2022/08/29 08:09:21;;;;;;;11.05;5.22;;;;;;;24.09;56.58;100355.00;20692321;28;22450;-78
2022/08/29 08:19:21;;;;;;;7.40;4.20;;;;;;;24.21;56.36;100356.53;20702275;28;20128;-79
2022/08/29 08:29:21;;;;;;;5.90;3.80;;;;;;;24.24;55.15;100353.63;20697202;28;20046;-75
2022/08/29 08:39:22;;;;;;;4.75;4.22;;;;;;;24.40;56.24;100353.03;20676345;28;20042;-77
2022/08/29 08:49:31;;;;;;;7.15;4.00;;;;;;;24.54;55.46;100359.69;20651362;28;20041;-80
2022/08/29 08:59:42;;;;;;;4.93;4.28;;;;;;;24.71;55.15;100350.22;20700725;28;20037;-77
2022/08/29 09:10:01;;;;;;;6.33;4.10;;;;;;;24.85;54.19;100356.91;20724423;28;20025;-76
2022/08/29 09:20:07;;;;;;;4.88;4.10;;;;;;;25.00;53.46;100340.50;20718480;28;20135;-76
2022/08/29 09:30:15;;;;;;;6.03;3.95;;;;;;;25.19;53.47;100339.59;20717293;28;20125;-77
2022/08/29 09:40:22;;;;;;;7.32;3.97;;;;;;;25.38;52.59;100336.88;20735363;28;20048;-78
2022/08/29 09:50:24;;;;;;;7.60;4.30;;;;;;;25.56;52.65;100342.25;20736169;28;20049;-78
2022/08/29 10:00:35;;;;;;;7.72;4.43;;;;;;;25.62;53.59;100340.81;20661443;28;20053;-74
2022/08/29 10:10:51;;;;;;;4.50;4.10;;;;;;;25.66;53.68;100331.56;20695329;28;20049;-76
2022/08/29 10:21:13;;;;;;;5.43;4.00;;;;;;;25.76;53.10;100335.97;20690593;28;20041;-78
2022/08/29 10:31:50;;;;;;;13.35;5.70;;;;;;;25.85;53.05;100337.72;20701426;28;20049;-77
2022/08/29 10:42:09;;;;;;;12.82;5.63;;;;;;;26.04;52.97;100334.91;20684071;28;20037;-76
2022/08/29 10:52:33;;;;;;;8.18;5.97;;;;;;;26.15;51.35;100330.41;20649643;28;20049;-77
2022/08/29 11:02:40;;;;;;;7.30;6.45;;;;;;;26.26;51.17;100326.66;20645817;28;20053;-78
2022/08/29 11:12:46;;;;;;;6.32;4.80;;;;;;;26.31;50.20;100311.09;20652086;28;20057;-75
2022/08/29 11:22:57;;;;;;;4.30;3.85;;;;;;;26.40;48.47;100310.16;20645030;28;20042;-77
2022/08/29 11:33:31;;;;;;;3.53;2.97;;;;;;;26.41;47.97;100300.41;20693448;28;20049;-78
2022/08/29 11:43:40;;;;;;;4.15;3.40;;;;;;;26.50;49.76;100294.97;20708936;28;20060;-77
2022/08/29 11:53:41;;;;;;;3.08;2.78;;;;;;;26.65;49.00;100295.22;20687800;28;20056;-79
2022/08/29 12:03:44;;;;;;;3.57;2.70;;;;;;;26.74;47.21;100297.94;20712448;28;20034;-76
2022/08/29 12:13:48;;;;;;;2.97;2.67;;;;;;;26.99;46.84;100285.63;20685604;28;20045;-75
2022/08/29 12:23:49;;;;;;;5.13;2.58;;;;;;;27.17;45.39;100272.22;20643478;28;20479;-75
2022/08/29 12:34:07;;;;;;;3.00;2.47;;;;;;;27.19;46.32;100256.94;20643120;28;20041;-75
2022/08/29 12:44:12;;;;;;;5.85;2.13;;;;;;;27.55;44.44;100238.13;20669335;28;20073;-75
2022/08/29 12:54:12;;;;;;;5.20;2.20;;;;;;;27.46;45.22;100239.09;20670329;28;20531;-74
2022/08/29 13:04:16;;;;;;;4.30;2.22;;;;;;;27.56;45.07;100228.31;20705017;28;20085;-75
2022/08/29 13:14:20;;;;;;;3.28;2.30;;;;;;;27.55;43.62;100221.31;20615799;28;20053;-74
2022/08/29 13:24:20;;;;;;;2.20;1.80;;;;;;;27.57;44.90;100220.16;20688963;28;20045;-74
2022/08/29 13:34:21;;;;;;;4.05;2.10;;;;;;;27.65;44.65;100203.38;20683749;28;20054;-74
2022/08/29 13:44:26;;;;;;;2.13;1.92;;;;;;;27.70;44.72;100209.03;20706338;28;20838;-75
2022/08/29 13:54:31;;;;;;;2.25;1.98;;;;;;;27.77;44.56;100201.19;20668780;28;20108;-74
2022/08/29 14:04:33;;;;;;;3.80;2.10;;;;;;;27.82;44.73;100208.69;20690838;28;20038;-73
2022/08/29 14:14:34;;;;;;;5.07;1.90;;;;;;;28.15;43.54;100198.88;20678528;28;20056;-73
2022/08/29 14:24:36;;;;;;;5.03;2.00;;;;;;;28.06;43.43;100200.72;20685395;28;20038;-74
2022/08/29 14:34:38;;;;;;;1.90;1.80;;;;;;;28.12;43.37;100199.19;20686071;28;20053;-74
2022/08/29 14:44:39;;;;;;;3.25;2.10;;;;;;;28.16;43.92;100189.88;20656465;28;20500;-74
2022/08/29 14:54:41;;;;;;;2.88;2.00;;;;;;;28.18;43.53;100195.84;20695743;28;20078;-73
2022/08/29 15:04:42;;;;;;;3.45;2.00;;;;;;;28.24;43.11;100189.03;20666853;28;20041;-73
2022/08/29 15:14:44;;;;;;;2.10;1.90;;;;;;;28.32;43.25;100189.00;20663336;28;20049;-73
2022/08/29 15:24:45;;;;;;;3.58;2.90;;;;;;;28.28;43.49;100190.34;20623558;28;20073;-73
2022/08/29 15:34:47;;;;;;;6.60;3.70;;;;;;;28.22;43.50;100220.31;20676866;28;20052;-72
2022/08/29 15:44:48;;;;;;;8.57;3.72;;;;;;;28.10;47.60;100249.13;20680388;28;20457;-72
2022/08/29 15:54:49;;;;;;;8.15;3.38;;;;;;;28.08;46.57;100259.91;20701121;28;20608;-73
2022/08/29 16:04:49;;;;;;;7.68;3.17;;;;;;;28.01;50.95;100250.09;20644661;28;20173;-73
2022/08/29 16:14:49;;;;;;;6.07;3.50;;;;;;;28.24;52.57;100248.41;20668021;28;20050;-73
2022/08/29 16:24:50;;;;;;;8.93;5.10;;;;;;;28.05;55.64;100254.09;20700057;28;20168;-73
2022/08/29 16:34:50;;;;;;;9.40;7.50;;;;;;;28.24;55.58;100252.91;20701631;28;21033;-73
2022/08/29 16:44:52;;;;;;;6.90;4.68;;;;;;;27.86;56.99;100261.41;20686357;28;20046;-74
2022/08/29 16:54:52;;;;;;;10.18;7.40;;;;;;;27.23;58.39;100271.56;20703767;28;20123;-74
2022/08/29 17:04:53;;;;;;;5.15;3.70;;;;;;;26.78;58.48;100291.34;20598664;28;20056;-74
2022/08/29 17:24:54;;;;;;;6.30;5.03;;;;;;;26.40;59.66;100291.56;20617736;28;20056;-75
2022/08/29 17:34:54;;;;;;;4.55;3.72;;;;;;;25.91;59.68;100292.00;20628116;28;20042;-75
2022/08/29 17:44:55;;;;;;;9.55;7.38;;;;;;;25.55;61.07;100319.34;20630583;28;20406;-76
2022/08/29 17:54:55;;;;;;;14.13;11.52;;;;;;;25.56;60.93;100347.53;20647717;28;20061;-74
2022/08/29 18:04:56;;;;;;;8.52;4.93;;;;;;;25.57;60.70;100358.97;20684952;28;20069;-75
2022/08/29 18:14:56;;;;;;;8.02;4.78;;;;;;;26.07;58.44;100362.16;20652401;28;20795;-73
2022/08/29 18:24:57;;;;;;;7.78;4.45;;;;;;;26.20;58.18;100366.09;20630989;28;20052;-78
2022/08/29 18:34:57;;;;;;;5.32;4.15;;;;;;;26.24;58.29;100368.44;20610165;28;20058;-74
2022/08/29 18:44:58;;;;;;;8.10;4.45;;;;;;;25.69;60.57;100376.34;20608496;28;20098;-73
2022/08/29 18:54:58;;;;;;;7.20;3.90;;;;;;;25.34;60.34;100387.66;20668384;28;20038;-76
2022/08/29 19:04:59;;;;;;;4.70;3.78;;;;;;;25.18;60.91;100393.59;20670226;28;20123;-77
2022/08/29 19:14:59;;;;;;;5.70;4.15;;;;;;;25.27;60.42;100403.31;20671981;28;20152;-78
2022/08/29 19:25:02;;;;;;;5.13;4.07;;;;;;;24.98;61.14;100400.78;20628326;28;20038;-76
2022/08/29 19:35:03;;;;;;;7.15;4.47;;;;;;;24.72;62.37;100411.97;20671127;28;20034;-79
2022/08/29 19:45:06;;;;;;;6.60;5.00;;;;;;;24.53;63.53;100421.56;20733175;28;20059;-80
2022/08/29 19:55:09;;;;;;;5.93;4.30;;;;;;;24.41;64.12;100418.25;20751498;28;20057;-79
2022/08/29 20:05:12;;;;;;;9.63;4.45;;;;;;;24.41;62.71;100426.19;20743140;28;20030;-78
2022/08/29 20:15:13;;;;;;;8.20;4.43;;;;;;;24.35;63.28;100423.25;20747430;28;20041;-78
2022/08/29 20:25:14;;;;;;;6.20;4.57;;;;;;;24.37;63.99;100419.47;20732967;28;20049;-79
2022/08/29 20:37:07;;;;;;;8.50;4.38;;;;;;;24.46;64.00;100420.44;20728655;28;20045;-75
2022/08/29 20:45:37;;;;;;;7.20;4.80;;;;;;;24.42;62.79;100430.47;20734944;28;20081;-77
2022/08/29 20:55:41;;;;;;;11.63;5.68;;;;;;;24.49;63.02;100428.13;20737599;28;20420;-75
2022/08/29 21:05:41;;;;;;;6.78;4.72;;;;;;;24.77;62.21;100429.09;20728442;28;20042;-74
2022/08/29 21:15:43;;;;;;;8.35;4.47;;;;;;;25.28;60.63;100431.50;20688319;28;20084;-75
2022/08/29 21:25:45;;;;;;;6.72;5.18;;;;;;;25.57;59.43;100427.91;20669990;28;20519;-75
2022/08/29 21:35:46;;;;;;;5.15;4.65;;;;;;;25.21;60.11;100436.53;20699830;28;20084;-79
2022/08/29 21:45:47;;;;;;;7.43;4.60;;;;;;;24.97;60.35;100434.34;20682612;28;20528;-77
2022/08/29 21:55:48;;;;;;;10.32;4.80;;;;;;;24.82;60.43;100433.97;20669530;28;20042;-77
2022/08/29 22:05:48;;;;;;;4.35;3.95;;;;;;;24.56;60.96;100426.59;20678469;28;20144;-77
2022/08/29 22:26:07;;;;;;;7.18;4.25;;;;;;;24.31;62.13;100430.63;20658907;28;20392;-75
2022/08/29 22:36:09;;;;;;;6.03;4.45;;;;;;;24.26;62.29;100443.44;20674223;28;20053;-75
2022/08/29 22:46:15;;;;;;;6.05;4.53;;;;;;;24.15;62.60;100457.63;20675371;28;20050;-76
2022/08/29 22:56:16;;;;;;;6.57;4.18;;;;;;;24.14;62.47;100472.66;20666380;28;20045;-77
2022/08/29 23:06:16;;;;;;;5.53;4.15;;;;;;;23.98;63.13;100472.34;20658135;28;20076;-76
2022/08/29 23:16:17;;;;;;;7.55;4.32;;;;;;;23.80;63.53;100472.09;20597721;28;20053;-76
2022/08/29 23:26:21;;;;;;;5.85;4.38;;;;;;;23.88;63.17;100482.03;20655039;28;20045;-75
2022/08/29 23:36:21;;;;;;;4.35;3.95;;;;;;;23.88;62.86;100482.88;20656594;28;20049;-75
2022/08/29 23:46:22;;;;;;;4.90;4.43;;;;;;;23.67;63.22;100481.13;20669611;28;20084;-75
2022/08/29 23:56:24;;;;;;;4.88;4.10;;;;;;;23.63;63.96;100485.00;20677329;28;21175;-75
